Time;durP1;ratioP1;P1;durP2;ratioP2;P2;SDS_P1;SDS_P2;PMS_P1;PMS_P2;Temp;Humidity;BMP_temperature;BMP_pressure;BME280_temperature;BME280_humidity;BME280_pressure;Samples;Min_cycle;Max_cycle;Signal;HPM_P1;HPM_P2
2021/04/08 00:00:24;;;;;;;1.55;0.60;;;22.90;99.90;;;;;;5088960;28;20479;-79
2021/04/08 00:02:52;;;;;;;1.03;0.50;;;22.90;99.90;;;;;;5087373;28;20476;-77
2021/04/08 00:05:19;;;;;;;4.32;0.73;;;22.90;99.90;;;;;;5089043;28;20531;-79
2021/04/08 00:07:46;;;;;;;2.78;0.70;;;22.60;99.90;;;;;;5088374;28;20391;-78
2021/04/08 00:10:13;;;;;;;2.70;0.70;;;22.50;99.90;;;;;;5088819;28;20480;-79
2021/04/08 00:12:40;;;;;;;2.67;0.75;;;22.40;99.90;;;;;;5089389;28;20554;-78
2021/04/08 00:15:13;;;;;;;2.67;0.45;;;22.40;99.90;;;;;;5085432;28;20759;-77
2021/04/08 00:17:41;;;;;;;3.55;0.88;;;22.50;99.90;;;;;;5087066;28;20385;-77
2021/04/08 00:20:17;;;;;;;3.17;0.88;;;22.70;99.90;;;;;;5088347;28;20392;-76
2021/04/08 00:22:44;;;;;;;4.90;0.73;;;23.70;99.90;;;;;;5087344;28;20388;-77
2021/04/08 00:25:13;;;;;;;4.63;0.73;;;24.80;99.90;;;;;;5087648;28;20391;-77
2021/04/08 00:27:41;;;;;;;3.13;0.60;;;25.80;99.90;;;;;;5087926;28;20384;-77
2021/04/08 00:30:09;;;;;;;2.17;0.70;;;25.90;99.90;;;;;;5088163;28;20404;-77
2021/04/08 00:32:36;;;;;;;4.25;0.68;;;25.20;99.90;;;;;;5087121;28;20369;-76
2021/04/08 00:35:04;;;;;;;3.22;0.82;;;24.40;99.90;;;;;;5080290;28;20484;-77
2021/04/08 00:37:31;;;;;;;2.47;0.80;;;24.20;99.90;;;;;;5088025;28;20384;-77
2021/04/08 00:39:58;;;;;;;3.63;0.73;;;24.40;99.90;;;;;;5086699;28;20376;-77
2021/04/08 00:42:25;;;;;;;4.38;0.80;;;24.40;99.90;;;;;;5086181;28;20458;-78
2021/04/08 00:44:52;;;;;;;2.97;0.73;;;25.10;99.90;;;;;;5087880;28;20384;-77
2021/04/08 00:47:20;;;;;;;2.67;0.67;;;24.60;99.90;;;;;;5086809;28;20459;-77
2021/04/08 00:49:51;;;;;;;3.92;0.90;;;24.70;99.90;;;;;;5087224;28;20817;-78
2021/04/08 00:52:18;;;;;;;3.42;0.88;;;25.50;99.90;;;;;;5088739;28;20407;-78
2021/04/08 00:54:46;;;;;;;4.82;0.60;;;26.50;99.90;;;;;;5087542;28;20476;-78
2021/04/08 00:57:13;;;;;;;1.15;0.60;;;27.10;99.90;;;;;;5087165;28;20388;-79
2021/04/08 00:59:40;;;;;;;2.10;0.50;;;27.50;99.90;;;;;;5085854;28;20377;-78
2021/04/08 01:02:09;;;;;;;2.78;0.68;;;27.80;99.90;;;;;;5086664;28;20439;-77
2021/04/08 01:04:37;;;;;;;2.13;0.70;;;28.10;99.90;;;;;;5087832;28;20376;-77
2021/04/08 01:07:04;;;;;;;1.75;0.50;;;28.20;99.90;;;;;;5088121;28;20380;-77
2021/04/08 01:09:31;;;;;;;1.30;0.50;;;27.30;99.90;;;;;;5088183;28;20966;-77
2021/04/08 01:11:58;;;;;;;1.92;0.60;;;26.60;99.90;;;;;;5087755;28;20391;-77
2021/04/08 01:14:25;;;;;;;3.25;0.60;;;25.90;99.90;;;;;;5087353;28;20396;-78
2021/04/08 01:17:32;;;;;;;1.60;0.60;;;25.10;99.90;;;;;;5087819;28;20380;-78
2021/04/08 01:20:21;;;;;;;2.80;0.70;;;24.70;99.90;;;;;;5031293;28;20640;-78
2021/04/08 01:23:06;;;;;;;2.97;0.55;;;24.40;99.90;;;;;;5088247;28;20412;-78
2021/04/08 01:25:39;;;;;;;4.30;0.70;;;24.20;99.90;;;;;;5088228;28;20379;-78
2021/04/08 01:28:06;;;;;;;2.72;0.52;;;24.30;99.90;;;;;;5087968;28;20873;-78
2021/04/08 01:30:44;;;;;;;1.20;0.40;;;24.10;99.90;;;;;;5087087;28;20771;-79
2021/04/08 01:33:22;;;;;;;2.30;0.40;;;23.70;99.90;;;;;;5087811;28;20380;-78
2021/04/08 01:35:49;;;;;;;1.08;0.40;;;23.20;99.90;;;;;;5086674;28;20388;-78
2021/04/08 01:38:29;;;;;;;2.23;0.40;;;22.90;99.90;;;;;;5087958;28;20433;-78
2021/04/08 01:40:57;;;;;;;1.88;0.40;;;22.80;99.90;;;;;;5088027;28;20383;-78
2021/04/08 01:43:27;;;;;;;1.33;0.30;;;22.70;99.90;;;;;;5087666;28;20385;-78
2021/04/08 01:45:58;;;;;;;1.50;0.50;;;22.60;99.90;;;;;;5087998;28;21102;-78
2021/04/08 01:48:26;;;;;;;1.58;0.30;;;22.50;99.90;;;;;;5086832;28;20878;-77
2021/04/08 01:50:59;;;;;;;1.42;0.50;;;22.40;99.90;;;;;;5085255;28;20380;-79
2021/04/08 01:53:27;;;;;;;2.05;0.50;;;22.30;99.90;;;;;;5091735;28;20377;-77
2021/04/08 01:56:01;;;;;;;2.42;0.68;;;22.20;99.90;;;;;;5090892;28;20384;-77
2021/04/08 01:58:29;;;;;;;2.83;1.33;;;22.00;99.90;;;;;;5091901;28;20707;-77
2021/04/08 02:00:58;;;;;;;2.33;0.52;;;22.00;99.90;;;;;;5091141;28;20897;-80
2021/04/08 02:03:26;;;;;;;2.60;0.57;;;22.20;99.90;;;;;;5091360;28;20415;-77
2021/04/08 02:05:54;;;;;;;1.83;0.50;;;22.40;99.90;;;;;;5090918;28;20408;-79
2021/04/08 02:08:22;;;;;;;2.00;0.30;;;22.60;99.90;;;;;;5090820;28;20486;-79
2021/04/08 02:10:50;;;;;;;2.75;0.55;;;22.60;99.90;;;;;;5097962;28;20463;-80
2021/04/08 02:13:23;;;;;;;2.67;0.40;;;22.50;99.90;;;;;;5091282;28;20372;-80
2021/04/08 02:15:51;;;;;;;1.67;0.52;;;22.40;99.90;;;;;;5090208;28;20403;-79
2021/04/08 02:18:21;;;;;;;1.90;0.50;;;22.30;99.90;;;;;;5088758;28;20384;-80
2021/04/08 02:23:52;;;;;;;3.77;0.80;;;22.80;99.90;;;;;;5080858;28;20583;-80
2021/04/08 02:26:20;;;;;;;3.10;0.80;;;22.80;99.90;;;;;;5089553;28;20886;-80
2021/04/08 02:28:48;;;;;;;1.80;0.82;;;22.70;99.90;;;;;;5091495;28;20400;-80
2021/04/08 02:31:18;;;;;;;3.90;1.00;;;22.60;99.90;;;;;;5090828;28;20540;-80
2021/04/08 02:33:45;;;;;;;4.68;0.70;;;22.60;99.90;;;;;;5091280;28;20423;-80
2021/04/08 02:36:13;;;;;;;4.03;0.65;;;22.70;99.90;;;;;;5087014;28;20442;-80
2021/04/08 02:38:40;;;;;;;4.38;1.00;;;22.80;99.90;;;;;;5090193;28;20411;-81
2021/04/08 02:41:08;;;;;;;3.35;1.00;;;22.90;99.90;;;;;;5091185;28;20415;-79
2021/04/08 02:43:36;;;;;;;2.95;0.60;;;23.00;99.90;;;;;;5091161;28;20384;-79
2021/04/08 02:46:03;;;;;;;3.33;0.82;;;23.10;99.90;;;;;;5093401;28;20372;-79
2021/04/08 02:48:32;;;;;;;2.55;0.80;;;23.10;99.90;;;;;;5108584;28;20391;-80
2021/04/08 02:51:21;;;;;;;2.47;0.90;;;23.00;99.90;;;;;;5110247;28;20375;-79
2021/04/08 02:54:13;;;;;;;4.72;1.30;;;22.70;99.90;;;;;;5103864;28;20431;-81
2021/04/08 02:56:56;;;;;;;4.07;0.88;;;22.40;99.90;;;;;;5058373;28;20405;-80
2021/04/08 02:59:58;;;;;;;3.08;0.90;;;22.40;99.90;;;;;;5084140;28;20523;-81
2021/04/08 03:02:29;;;;;;;2.53;0.73;;;22.50;99.90;;;;;;5079483;28;20949;-81
2021/04/08 03:04:58;;;;;;;2.40;0.65;;;22.70;99.90;;;;;;5090178;28;20379;-81
2021/04/08 03:07:41;;;;;;;4.70;0.85;;;22.80;99.90;;;;;;5090532;28;20399;-80
2021/04/08 03:10:11;;;;;;;1.70;0.60;;;23.00;99.90;;;;;;5090497;28;20396;-80
2021/04/08 03:12:48;;;;;;;3.45;0.80;;;22.90;99.90;;;;;;5090497;28;20425;-80
2021/04/08 03:15:23;;;;;;;5.77;1.10;;;23.00;99.90;;;;;;5088808;28;20800;-81
2021/04/08 03:17:52;;;;;;;3.20;0.67;;;23.30;99.90;;;;;;5089493;28;20451;-81
2021/04/08 03:20:19;;;;;;;2.88;0.70;;;23.40;99.90;;;;;;5080645;28;20367;-81
2021/04/08 03:22:49;;;;;;;2.38;0.55;;;23.40;99.90;;;;;;5091450;28;20427;-81
2021/04/08 03:25:18;;;;;;;3.50;0.80;;;23.50;99.90;;;;;;5083148;28;20363;-80
2021/04/08 03:27:45;;;;;;;2.80;0.50;;;23.50;99.90;;;;;;5111066;28;20467;-80
2021/04/08 03:30:14;;;;;;;3.20;0.55;;;23.40;99.90;;;;;;5110927;28;20829;-81
2021/04/08 03:32:42;;;;;;;3.30;0.70;;;23.30;99.90;;;;;;5111417;28;20378;-80
2021/04/08 03:35:11;;;;;;;4.22;0.68;;;23.30;99.90;;;;;;5111745;28;20374;-81
2021/04/08 03:37:40;;;;;;;3.25;0.40;;;23.40;99.90;;;;;;5111020;28;20363;-81
2021/04/08 03:40:08;;;;;;;3.35;0.60;;;23.40;99.90;;;;;;5110958;28;20398;-81
2021/04/08 03:42:36;;;;;;;1.67;0.40;;;23.30;99.90;;;;;;5103157;28;20387;-80
2021/04/08 03:45:05;;;;;;;2.50;0.32;;;23.20;99.90;;;;;;5089590;28;20905;-80
2021/04/08 03:47:32;;;;;;;2.00;0.63;;;23.30;99.90;;;;;;5090286;28;20388;-81
2021/04/08 03:50:00;;;;;;;2.70;0.30;;;23.20;99.90;;;;;;5089161;28;20415;-80
2021/04/08 03:52:28;;;;;;;3.90;0.50;;;23.10;99.90;;;;;;5090394;28;20599;-81
2021/04/08 03:54:56;;;;;;;3.47;0.50;;;22.90;99.90;;;;;;5089502;28;20433;-80
2021/04/08 03:57:24;;;;;;;2.67;0.40;;;22.90;99.90;;;;;;5089946;28;20398;-81
2021/04/08 03:59:52;;;;;;;3.38;0.63;;;22.80;99.90;;;;;;5089095;28;20384;-80
2021/04/08 04:02:20;;;;;;;2.35;0.50;;;22.80;99.90;;;;;;5090394;28;20399;-81
2021/04/08 04:04:49;;;;;;;2.42;0.50;;;22.90;99.90;;;;;;5090967;28;20380;-81
2021/04/08 04:07:16;;;;;;;2.65;0.55;;;22.90;99.90;;;;;;5090603;28;20385;-80
2021/04/08 04:09:45;;;;;;;1.33;0.50;;;22.90;99.90;;;;;;5091537;28;20921;-79
2021/04/08 04:12:15;;;;;;;2.45;0.50;;;22.90;99.90;;;;;;5092235;28;20867;-81
2021/04/08 04:14:44;;;;;;;2.10;0.50;;;22.90;99.90;;;;;;5090971;28;20384;-80
2021/04/08 04:17:29;;;;;;;2.25;0.40;;;22.80;99.90;;;;;;5091236;28;20425;-81
2021/04/08 04:19:57;;;;;;;2.90;0.45;;;22.60;99.90;;;;;;5083564;28;20455;-80
2021/04/08 04:22:24;;;;;;;1.48;0.40;;;22.50;99.90;;;;;;5089471;28;20373;-81
2021/04/08 04:24:52;;;;;;;1.90;0.40;;;22.40;99.90;;;;;;5088044;28;20376;-80
2021/04/08 04:27:19;;;;;;;1.67;0.60;;;22.40;99.90;;;;;;5086851;28;20799;-80
2021/04/08 04:29:46;;;;;;;4.47;0.45;;;22.40;99.90;;;;;;5076926;28;20742;-80
2021/04/08 04:32:14;;;;;;;2.07;0.70;;;22.40;99.90;;;;;;5084253;28;20391;-80
2021/04/08 04:34:46;;;;;;;1.98;0.40;;;22.50;99.90;;;;;;5088083;28;20396;-82
2021/04/08 04:37:13;;;;;;;3.17;0.70;;;22.60;99.90;;;;;;5089591;28;20372;-80
2021/04/08 04:39:40;;;;;;;3.95;0.90;;;22.70;99.90;;;;;;5071656;28;20370;-80
2021/04/08 04:42:08;;;;;;;3.63;0.70;;;22.90;99.90;;;;;;5078078;28;20445;-80
2021/04/08 04:44:35;;;;;;;2.47;0.80;;;23.00;99.90;;;;;;5090167;28;20388;-80
2021/04/08 04:47:03;;;;;;;3.03;0.60;;;23.00;99.90;;;;;;5076178;28;20384;-79
2021/04/08 04:49:30;;;;;;;3.33;0.50;;;22.90;99.90;;;;;;5088787;28;20410;-79
2021/04/08 04:51:57;;;;;;;3.28;0.52;;;22.80;99.90;;;;;;5088558;28;20380;-80
2021/04/08 04:54:24;;;;;;;1.33;0.40;;;22.70;99.90;;;;;;5087733;28;20376;-79
2021/04/08 04:56:51;;;;;;;3.10;0.40;;;22.60;99.90;;;;;;5088860;28;20364;-80
2021/04/08 04:59:18;;;;;;;2.45;0.50;;;22.40;99.90;;;;;;5088164;28;20464;-79
2021/04/08 05:01:45;;;;;;;2.33;0.50;;;22.30;99.90;;;;;;5104503;28;20366;-79
2021/04/08 05:04:12;;;;;;;2.20;0.47;;;22.20;99.90;;;;;;5105393;28;20438;-81
2021/04/08 05:06:39;;;;;;;3.50;0.50;;;22.10;99.90;;;;;;5087917;28;20360;-79
2021/04/08 05:09:07;;;;;;;2.33;0.52;;;22.10;99.90;;;;;;5086518;28;20457;-80
2021/04/08 05:11:34;;;;;;;3.28;0.52;;;22.20;99.90;;;;;;5075928;28;20747;-79
2021/04/08 05:14:01;;;;;;;2.92;0.43;;;22.20;99.90;;;;;;5077247;28;20390;-79
2021/04/08 05:16:28;;;;;;;2.30;0.47;;;22.30;99.90;;;;;;5068668;28;20370;-80
2021/04/08 05:18:55;;;;;;;4.63;1.10;;;22.40;99.90;;;;;;5078938;28;21084;-79
2021/04/08 05:21:22;;;;;;;2.00;0.30;;;22.50;99.90;;;;;;5085389;28;20441;-79
2021/04/08 05:23:49;;;;;;;2.43;0.37;;;22.50;99.90;;;;;;5091684;28;20442;-80
2021/04/08 05:26:16;;;;;;;1.42;0.45;;;22.60;99.90;;;;;;5090281;28;21069;-81
2021/04/08 05:28:44;;;;;;;2.00;0.60;;;22.60;99.90;;;;;;5091294;28;21045;-80
2021/04/08 05:31:11;;;;;;;2.65;0.50;;;22.60;99.90;;;;;;5090763;28;20742;-80
2021/04/08 05:33:38;;;;;;;2.87;0.60;;;22.60;99.90;;;;;;5091918;28;20488;-84
2021/04/08 05:36:05;;;;;;;2.07;0.43;;;22.70;99.90;;;;;;5092101;28;20395;-80
2021/04/08 05:38:32;;;;;;;1.70;0.40;;;22.80;99.90;;;;;;5092481;28;20392;-81
2021/04/08 05:40:59;;;;;;;2.33;0.38;;;22.80;99.90;;;;;;5091579;28;20380;-80
2021/04/08 05:43:26;;;;;;;1.77;0.30;;;22.80;99.90;;;;;;5091785;28;20436;-80
2021/04/08 05:45:53;;;;;;;2.15;0.40;;;22.80;99.90;;;;;;5092229;28;20387;-81
2021/04/08 05:48:20;;;;;;;2.55;0.60;;;22.80;99.90;;;;;;5089329;28;20407;-78
2021/04/08 05:50:47;;;;;;;1.33;0.40;;;22.80;99.90;;;;;;5091044;28;20461;-79
2021/04/08 05:53:14;;;;;;;3.42;0.57;;;22.90;99.90;;;;;;5089960;28;20384;-78
2021/04/08 05:55:41;;;;;;;1.70;0.40;;;22.80;99.90;;;;;;5092010;28;20434;-78
2021/04/08 05:58:08;;;;;;;2.30;0.50;;;22.80;99.90;;;;;;5091305;28;20884;-80
2021/04/08 06:00:35;;;;;;;1.92;0.43;;;22.70;99.90;;;;;;5090090;28;20930;-78
2021/04/08 06:03:01;;;;;;;3.20;0.60;;;22.60;99.90;;;;;;5091677;28;21308;-78
2021/04/08 06:05:28;;;;;;;1.73;0.40;;;22.60;99.90;;;;;;5092007;28;20384;-77
2021/04/08 06:07:55;;;;;;;4.00;0.70;;;22.50;99.90;;;;;;5091238;28;20805;-79
2021/04/08 06:10:22;;;;;;;3.55;0.68;;;22.50;99.90;;;;;;5091948;28;20548;-78
2021/04/08 06:12:50;;;;;;;3.85;0.32;;;22.50;99.90;;;;;;5091930;28;20476;-78
2021/04/08 06:15:17;;;;;;;1.83;0.50;;;22.40;99.90;;;;;;5091815;28;20376;-78
2021/04/08 06:17:44;;;;;;;3.35;0.50;;;22.30;99.90;;;;;;5090265;28;20377;-79
2021/04/08 06:20:13;;;;;;;3.83;0.70;;;22.20;99.90;;;;;;5091480;28;20410;-79
2021/04/08 06:22:40;;;;;;;4.17;0.80;;;22.10;99.90;;;;;;5091066;28;20376;-79
2021/04/08 06:25:08;;;;;;;4.13;0.83;;;22.10;99.90;;;;;;5091454;28;20388;-79
2021/04/08 06:27:35;;;;;;;3.25;0.68;;;22.00;99.90;;;;;;5091820;28;20412;-78
2021/04/08 06:30:04;;;;;;;3.42;0.55;;;22.00;99.90;;;;;;5090125;28;20400;-79
2021/04/08 06:32:31;;;;;;;2.20;0.50;;;21.90;99.90;;;;;;5090787;28;20440;-82
2021/04/08 06:34:58;;;;;;;4.03;0.70;;;21.80;99.90;;;;;;5091177;28;20388;-81
2021/04/08 06:37:25;;;;;;;3.23;0.57;;;21.80;99.90;;;;;;5090363;28;20373;-81
2021/04/08 06:39:52;;;;;;;2.78;0.45;;;21.70;99.90;;;;;;5091095;28;20392;-78
2021/04/08 06:42:20;;;;;;;3.53;0.55;;;21.70;99.90;;;;;;5091472;28;20372;-80
2021/04/08 06:44:53;;;;;;;2.50;0.80;;;21.70;99.90;;;;;;5091036;28;20406;-81
2021/04/08 06:47:43;;;;;;;5.75;0.70;;;21.60;99.90;;;;;;5091489;28;20473;-82
2021/04/08 06:50:12;;;;;;;2.53;0.65;;;21.60;99.90;;;;;;5090515;28;20407;-81
2021/04/08 06:52:39;;;;;;;2.50;0.70;;;21.50;99.90;;;;;;5091028;28;20376;-81
2021/04/08 06:55:07;;;;;;;2.80;0.37;;;21.40;99.90;;;;;;5091399;28;20379;-79
2021/04/08 06:57:35;;;;;;;1.80;0.50;;;21.40;99.90;;;;;;5089379;28;20442;-78
2021/04/08 07:00:03;;;;;;;2.97;0.68;;;21.30;99.90;;;;;;5090674;28;20384;-78
2021/04/08 07:02:30;;;;;;;2.30;0.45;;;21.20;99.90;;;;;;5089392;28;20754;-78
2021/04/08 07:04:59;;;;;;;4.35;0.70;;;21.20;99.90;;;;;;5091119;28;20381;-78
2021/04/08 07:07:26;;;;;;;2.45;0.50;;;21.10;99.90;;;;;;5090651;28;20874;-81
2021/04/08 07:09:53;;;;;;;2.05;0.50;;;21.00;99.90;;;;;;5090446;28;20454;-80
2021/04/08 07:12:20;;;;;;;2.53;0.73;;;21.00;99.90;;;;;;5088854;28;20514;-80
2021/04/08 07:14:48;;;;;;;4.65;0.80;;;20.90;99.90;;;;;;5090636;28;20368;-81
2021/04/08 07:17:15;;;;;;;4.40;0.60;;;20.90;99.90;;;;;;5097779;28;20473;-80
2021/04/08 07:19:43;;;;;;;2.50;0.55;;;20.80;99.90;;;;;;5093388;28;20423;-81
2021/04/08 07:22:11;;;;;;;2.80;0.45;;;20.70;99.90;;;;;;5090256;28;20688;-80
2021/04/08 07:24:48;;;;;;;4.18;0.60;;;20.60;99.90;;;;;;5090550;28;20441;-80
2021/04/08 07:27:22;;;;;;;3.58;0.50;;;20.60;99.90;;;;;;5090280;28;20388;-79
2021/04/08 07:29:57;;;;;;;1.10;0.50;;;20.50;99.90;;;;;;5081685;28;20874;-79
2021/04/08 07:32:35;;;;;;;2.03;0.70;;;20.50;99.90;;;;;;5090237;28;20369;-81
2021/04/08 07:35:19;;;;;;;4.18;0.98;;;20.40;99.90;;;;;;5090077;28;20747;-79
2021/04/08 07:37:57;;;;;;;2.38;0.68;;;20.30;99.90;;;;;;5089474;28;20855;-80
2021/04/08 07:40:27;;;;;;;2.53;0.80;;;20.30;99.90;;;;;;5087255;28;20758;-80
2021/04/08 07:42:54;;;;;;;4.22;0.82;;;20.20;99.90;;;;;;5089464;28;20445;-80
2021/04/08 07:45:41;;;;;;;3.13;0.90;;;20.10;99.90;;;;;;5089328;28;20940;-79
2021/04/08 07:48:09;;;;;;;2.55;0.68;;;20.00;99.90;;;;;;5088005;28;20392;-79
2021/04/08 07:50:41;;;;;;;2.60;0.70;;;19.90;99.90;;;;;;5088609;28;20467;-80
2021/04/08 07:53:18;;;;;;;5.25;0.90;;;19.80;99.90;;;;;;5086797;28;20384;-79
2021/04/08 07:55:45;;;;;;;4.75;0.82;;;19.70;99.90;;;;;;5075429;28;20394;-79
2021/04/08 07:58:19;;;;;;;5.78;0.88;;;19.70;99.90;;;;;;5072783;28;20380;-80
2021/04/08 08:00:50;;;;;;;4.47;0.80;;;19.60;99.90;;;;;;5087727;28;21790;-80
2021/04/08 08:03:23;;;;;;;4.85;1.00;;;19.60;99.90;;;;;;5089129;28;20377;-80
2021/04/08 08:05:58;;;;;;;5.40;1.17;;;19.60;99.90;;;;;;5087153;28;20485;-80
2021/04/08 08:08:36;;;;;;;3.10;0.70;;;19.60;99.90;;;;;;5088887;28;20419;-80
2021/04/08 08:11:09;;;;;;;4.25;0.80;;;19.50;99.90;;;;;;5086425;28;20408;-79
2021/04/08 08:13:55;;;;;;;4.40;0.80;;;19.50;99.90;;;;;;5079089;28;20467;-79
2021/04/08 08:16:27;;;;;;;4.15;0.98;;;19.40;99.90;;;;;;5071035;28;20377;-79
2021/04/08 08:18:57;;;;;;;4.97;0.90;;;19.40;99.90;;;;;;5070432;28;20458;-80
2021/04/08 08:21:37;;;;;;;4.63;0.80;;;19.40;99.90;;;;;;5080213;28;20438;-79
2021/04/08 08:24:09;;;;;;;4.20;0.80;;;19.30;99.90;;;;;;5082737;28;20395;-80
2021/04/08 08:26:47;;;;;;;7.43;1.02;;;19.20;99.90;;;;;;5083609;28;20520;-79
2021/04/08 08:29:25;;;;;;;3.72;0.80;;;19.10;99.90;;;;;;5086216;28;20889;-79
2021/04/08 08:32:07;;;;;;;6.35;1.00;;;19.10;99.90;;;;;;5078115;28;20405;-79
2021/04/08 08:34:37;;;;;;;4.40;0.70;;;19.00;99.90;;;;;;5090294;28;20421;-80
2021/04/08 08:37:10;;;;;;;4.88;0.75;;;19.00;99.90;;;;;;5092261;28;20768;-80
2021/04/08 08:39:42;;;;;;;4.60;0.80;;;18.90;99.90;;;;;;5086049;28;20394;-79
2021/04/08 08:42:11;;;;;;;5.50;0.95;;;18.90;99.90;;;;;;5083581;28;20778;-80
2021/04/08 08:44:39;;;;;;;4.22;1.00;;;18.90;99.90;;;;;;5086741;28;20385;-80
2021/04/08 08:47:20;;;;;;;3.53;0.75;;;18.90;99.90;;;;;;5089071;28;20887;-80
2021/04/08 08:49:52;;;;;;;3.75;1.08;;;18.90;99.90;;;;;;5093029;28;20440;-79
2021/04/08 08:52:38;;;;;;;3.95;0.90;;;18.80;99.90;;;;;;5079622;28;20396;-80
2021/04/08 08:55:12;;;;;;;6.75;1.33;;;18.80;99.90;;;;;;5082854;28;20485;-80
2021/04/08 08:57:40;;;;;;;5.50;1.00;;;18.70;99.90;;;;;;5072168;28;21232;-79
2021/04/08 09:00:08;;;;;;;5.65;1.02;;;18.70;99.90;;;;;;5080757;28;20883;-80
2021/04/08 09:02:37;;;;;;;3.78;0.80;;;18.70;99.90;;;;;;5068591;28;20388;-79
2021/04/08 09:05:11;;;;;;;3.63;0.90;;;18.70;99.90;;;;;;5073890;28;20400;-79
2021/04/08 09:07:41;;;;;;;6.22;1.10;;;18.70;99.90;;;;;;5074048;28;20425;-79
2021/04/08 09:10:11;;;;;;;6.50;1.10;;;18.60;99.90;;;;;;5083955;28;20540;-79
2021/04/08 09:12:39;;;;;;;3.65;0.75;;;18.60;99.90;;;;;;5068529;28;20473;-81
2021/04/08 09:15:07;;;;;;;3.67;0.88;;;18.50;99.90;;;;;;5082283;28;20400;-80
2021/04/08 09:17:46;;;;;;;4.57;1.30;;;18.60;99.90;;;;;;5083401;28;20395;-80
2021/04/08 09:20:21;;;;;;;6.60;1.00;;;18.50;99.90;;;;;;5085038;28;20474;-82
2021/04/08 09:23:04;;;;;;;3.30;0.93;;;18.50;99.90;;;;;;5076567;28;20388;-81
2021/04/08 09:25:41;;;;;;;4.95;1.80;;;18.50;99.90;;;;;;5087603;28;20396;-81
2021/04/08 09:28:13;;;;;;;4.95;1.30;;;18.50;99.90;;;;;;5075365;28;20435;-80
2021/04/08 09:36:24;;;;;;;3.08;0.73;;;18.40;99.90;;;;;;5080131;28;20874;-81
2021/04/08 09:38:57;;;;;;;4.07;0.90;;;18.50;99.90;;;;;;5083841;28;20843;-81
2021/04/08 09:41:44;;;;;;;4.72;1.10;;;18.50;99.90;;;;;;5080503;28;20436;-80
2021/04/08 09:44:12;;;;;;;5.95;1.10;;;18.50;99.90;;;;;;5078504;28;21181;-81
2021/04/08 09:46:41;;;;;;;3.83;0.90;;;18.40;99.90;;;;;;5081270;28;20857;-81
2021/04/08 09:49:10;;;;;;;4.75;1.10;;;18.40;99.90;;;;;;5083910;28;20414;-80
2021/04/08 09:51:41;;;;;;;6.75;1.23;;;18.40;99.90;;;;;;5085129;28;20873;-81
2021/04/08 09:54:09;;;;;;;4.55;1.05;;;18.40;99.90;;;;;;5080175;28;20389;-81
2021/04/08 09:56:53;;;;;;;5.10;1.20;;;18.40;99.90;;;;;;5084849;28;20368;-81
2021/04/08 09:59:21;;;;;;;7.40;1.40;;;18.30;99.90;;;;;;5085120;28;20377;-81
2021/04/08 10:01:48;;;;;;;7.33;1.33;;;18.20;99.90;;;;;;5081938;28;20436;-81
2021/04/08 10:04:20;;;;;;;4.97;1.25;;;18.20;99.90;;;;;;5081334;28;20396;-80
2021/04/08 10:06:47;;;;;;;6.22;1.30;;;18.30;99.90;;;;;;5071500;28;20390;-81
2021/04/08 10:09:19;;;;;;;5.63;1.10;;;18.30;99.90;;;;;;5069402;28;20924;-80
2021/04/08 10:11:47;;;;;;;9.05;1.30;;;18.40;99.90;;;;;;5065308;28;20393;-80
2021/04/08 10:14:17;;;;;;;3.70;0.95;;;18.40;99.90;;;;;;5076249;28;20402;-80
2021/04/08 10:16:45;;;;;;;6.40;1.20;;;18.40;99.90;;;;;;5069564;28;20726;-79
2021/04/08 10:19:12;;;;;;;5.70;1.10;;;18.50;99.90;;;;;;5084670;28;20397;-80
2021/04/08 10:21:39;;;;;;;6.22;1.27;;;18.50;99.90;;;;;;5076425;28;20422;-81
2021/04/08 10:24:13;;;;;;;6.43;1.15;;;18.50;99.90;;;;;;5068143;28;20386;-81
2021/04/08 10:26:40;;;;;;;4.20;0.98;;;18.40;99.90;;;;;;5067987;28;20377;-80
2021/04/08 10:29:07;;;;;;;6.60;0.80;;;18.50;99.90;;;;;;5080805;28;20392;-80
2021/04/08 10:31:45;;;;;;;4.45;1.10;;;18.50;99.90;;;;;;5085294;28;20396;-81
2021/04/08 10:34:19;;;;;;;7.68;1.17;;;18.40;99.90;;;;;;5077002;28;20396;-81
2021/04/08 10:36:55;;;;;;;5.82;1.30;;;18.40;99.90;;;;;;5085818;28;20392;-80
2021/04/08 10:39:25;;;;;;;5.07;1.30;;;18.40;99.90;;;;;;5071929;28;20481;-80
2021/04/08 10:42:02;;;;;;;7.18;1.17;;;18.30;99.90;;;;;;5078756;28;20424;-80
2021/04/08 10:44:35;;;;;;;3.80;1.10;;;18.30;99.90;;;;;;5078030;28;20414;-80
2021/04/08 10:47:15;;;;;;;3.03;0.75;;;18.30;99.90;;;;;;5085139;28;20393;-80
2021/04/08 10:49:56;;;;;;;6.25;1.00;;;18.30;99.90;;;;;;5079005;28;21090;-81
2021/04/08 10:52:25;;;;;;;6.97;1.20;;;18.20;99.90;;;;;;5079226;28;20388;-80
2021/04/08 10:55:13;;;;;;;6.75;0.95;;;18.20;99.90;;;;;;5078427;28;20390;-80
2021/04/08 10:57:41;;;;;;;6.35;1.20;;;18.20;99.90;;;;;;5077566;28;20831;-79
2021/04/08 11:00:11;;;;;;;6.53;1.05;;;18.20;99.90;;;;;;5077444;28;20398;-79
2021/04/08 11:02:41;;;;;;;5.78;1.27;;;18.10;99.90;;;;;;5087626;28;20367;-80
2021/04/08 11:05:15;;;;;;;7.25;1.50;;;18.00;99.90;;;;;;5085283;28;20391;-80
2021/04/08 11:07:45;;;;;;;6.50;1.13;;;17.90;99.90;;;;;;5083333;28;20388;-80
2021/04/08 11:10:20;;;;;;;5.07;1.13;;;17.80;99.90;;;;;;5084411;28;21233;-80
2021/04/08 11:12:52;;;;;;;8.60;1.27;;;17.80;99.90;;;;;;5085575;28;20754;-80
2021/04/08 11:15:25;;;;;;;6.72;1.20;;;17.80;99.90;;;;;;5084483;28;20469;-81
2021/04/08 11:18:00;;;;;;;4.72;0.88;;;17.90;99.90;;;;;;5083902;28;20397;-81
2021/04/08 11:20:31;;;;;;;6.13;1.33;;;17.90;99.90;;;;;;5076162;28;20419;-81
2021/04/08 11:23:00;;;;;;;7.95;1.25;;;17.90;99.90;;;;;;5085441;28;20467;-81
2021/04/08 11:25:28;;;;;;;8.30;1.10;;;17.90;99.90;;;;;;5087138;28;20383;-81
2021/04/08 11:27:57;;;;;;;9.03;1.13;;;17.90;99.90;;;;;;5081610;28;21033;-80
2021/04/08 11:30:39;;;;;;;5.63;1.38;;;17.90;99.90;;;;;;5081958;28;20438;-79
2021/04/08 11:33:09;;;;;;;6.70;1.30;;;17.80;99.90;;;;;;5082891;28;20398;-81
2021/04/08 11:35:44;;;;;;;7.55;1.10;;;17.90;99.90;;;;;;5085795;28;20388;-81
2021/04/08 11:38:22;;;;;;;4.50;1.05;;;17.90;99.90;;;;;;5078938;28;20390;-81
2021/04/08 11:41:02;;;;;;;4.25;1.27;;;17.90;99.90;;;;;;5077477;28;20380;-81
2021/04/08 11:43:29;;;;;;;5.83;1.13;;;17.90;99.90;;;;;;5083867;28;20471;-82
2021/04/08 11:46:00;;;;;;;6.70;1.40;;;17.80;99.90;;;;;;5087679;28;20961;-81
2021/04/08 11:48:40;;;;;;;5.97;1.10;;;17.80;99.90;;;;;;5069498;28;20534;-81
2021/04/08 11:51:08;;;;;;;10.25;1.70;;;17.80;99.90;;;;;;5084858;28;20396;-82
2021/04/08 11:53:37;;;;;;;6.53;1.60;;;17.80;99.90;;;;;;5086872;28;20441;-81
2021/04/08 11:56:22;;;;;;;5.72;1.40;;;17.90;99.90;;;;;;5083529;28;20496;-80
2021/04/08 11:58:49;;;;;;;4.78;1.50;;;17.90;99.90;;;;;;5082975;28;20410;-80
2021/04/08 12:01:18;;;;;;;7.83;1.30;;;18.00;99.90;;;;;;5081866;28;20884;-81
2021/04/08 12:03:52;;;;;;;6.72;1.45;;;17.90;99.90;;;;;;5100717;27;20477;-81
2021/04/08 12:06:20;;;;;;;6.47;1.58;;;17.90;99.90;;;;;;5083624;28;20944;-79
2021/04/08 12:08:58;;;;;;;6.70;1.45;;;17.90;99.90;;;;;;5072208;28;20410;-81
2021/04/08 12:11:25;;;;;;;4.68;1.40;;;17.90;99.90;;;;;;5074446;28;20410;-81
2021/04/08 12:14:06;;;;;;;6.72;1.70;;;17.90;99.90;;;;;;5080481;28;20469;-81
2021/04/08 12:16:33;;;;;;;7.45;1.60;;;17.90;99.90;;;;;;5082226;28;20398;-79
2021/04/08 12:19:00;;;;;;;7.60;1.48;;;17.80;99.90;;;;;;5081413;28;20869;-80
2021/04/08 12:21:29;;;;;;;7.27;1.30;;;17.80;99.90;;;;;;5090292;28;20376;-79
2021/04/08 12:23:56;;;;;;;7.07;1.55;;;17.70;99.90;;;;;;5099008;28;20383;-79
2021/04/08 12:26:40;;;;;;;5.03;1.47;;;17.60;99.90;;;;;;5090224;28;20823;-80
2021/04/08 12:29:08;;;;;;;7.60;2.25;;;17.60;99.90;;;;;;5095647;28;20397;-80
2021/04/08 12:31:35;;;;;;;5.37;1.43;;;17.60;99.90;;;;;;5095578;28;20877;-79
2021/04/08 12:34:02;;;;;;;5.13;1.33;;;17.60;99.90;;;;;;5091612;28;20387;-79
2021/04/08 12:36:30;;;;;;;3.72;1.38;;;17.60;99.90;;;;;;5096633;28;20429;-80
2021/04/08 12:38:57;;;;;;;6.50;1.33;;;17.70;99.90;;;;;;5092098;28;20579;-80
2021/04/08 12:41:24;;;;;;;7.27;1.40;;;17.60;99.90;;;;;;5091423;28;20807;-81
2021/04/08 12:43:51;;;;;;;6.03;1.38;;;17.70;99.90;;;;;;5086729;28;20414;-81
2021/04/08 12:46:18;;;;;;;6.03;1.38;;;17.60;99.90;;;;;;5078043;28;20380;-80
2021/04/08 12:48:45;;;;;;;4.97;1.38;;;17.70;99.90;;;;;;5082269;28;20434;-80
2021/04/08 12:51:12;;;;;;;10.13;1.60;;;17.70;99.90;;;;;;5083898;28;20392;-80
2021/04/08 12:53:39;;;;;;;7.30;1.50;;;17.60;99.90;;;;;;5081717;28;20916;-80
2021/04/08 12:56:06;;;;;;;5.45;1.20;;;17.60;99.90;;;;;;5085695;28;20400;-81
2021/04/08 12:58:33;;;;;;;7.93;1.65;;;17.60;99.90;;;;;;5085103;28;20415;-80
2021/04/08 13:01:00;;;;;;;7.57;1.20;;;17.50;99.90;;;;;;5077333;28;20385;-80
2021/04/08 13:03:27;;;;;;;4.80;1.30;;;17.50;99.90;;;;;;5087163;28;20475;-81
2021/04/08 13:05:54;;;;;;;4.00;1.00;;;17.40;99.90;;;;;;5079805;28;20384;-80
2021/04/08 13:08:21;;;;;;;6.93;1.52;;;17.30;99.90;;;;;;5084932;28;20388;-80
2021/04/08 13:10:48;;;;;;;5.63;1.33;;;17.10;99.90;;;;;;5074753;28;20455;-81
2021/04/08 13:13:15;;;;;;;7.65;1.73;;;17.00;99.90;;;;;;5085683;28;20952;-80